Time;durP1;ratioP1;P1;durP2;ratioP2;P2;SDS_P1;SDS_P2;PMS_P1;PMS_P2;Temp;Humidity;BMP_temperature;BMP_pressure;BME280_temperature;BME280_humidity;BME280_pressure;Samples;Min_cycle;Max_cycle;Signal;HPM_P1;HPM_P2
2022/06/13 00:00:20;;;;;;;4.93;1.80;;;;;;;;;;514242;28;1621;-87
2022/06/13 00:00:36;;;;;;;5.00;1.80;;;;;;;;;;513506;28;1685;-88
2022/06/13 00:00:51;;;;;;;5.38;1.85;;;;;;;;;;515115;28;767;-86
2022/06/13 00:01:22;;;;;;;6.23;1.80;;;;;;;;;;514047;28;1699;-86
2022/06/13 00:01:38;;;;;;;6.50;2.13;;;;;;;;;;513096;28;1496;-87
2022/06/13 00:01:55;;;;;;;7.05;2.20;;;;;;;;;;514957;28;1447;-87
2022/06/13 00:02:11;;;;;;;6.10;2.20;;;;;;;;;;515401;28;1365;-87
2022/06/13 00:02:26;;;;;;;5.63;1.80;;;;;;;;;;516353;28;1504;-87
2022/06/13 00:02:41;;;;;;;7.07;2.00;;;;;;;;;;516019;28;1147;-86
2022/06/13 00:02:59;;;;;;;7.17;2.10;;;;;;;;;;513308;28;1613;-87
2022/06/13 00:03:15;;;;;;;6.88;2.00;;;;;;;;;;511622;29;1343;-87
2022/06/13 00:03:30;;;;;;;6.45;1.98;;;;;;;;;;509658;29;1590;-86
2022/06/13 00:03:48;;;;;;;5.70;1.90;;;;;;;;;;510517;29;1659;-86
2022/06/13 00:04:04;;;;;;;4.70;1.92;;;;;;;;;;510906;29;1374;-87
2022/06/13 00:04:20;;;;;;;4.78;2.08;;;;;;;;;;511843;29;1650;-87
2022/06/13 00:04:35;;;;;;;5.32;1.98;;;;;;;;;;513305;28;910;-86
2022/06/13 00:04:51;;;;;;;5.32;1.88;;;;;;;;;;514527;28;1574;-86
2022/06/13 00:05:08;;;;;;;5.23;1.83;;;;;;;;;;514033;28;1296;-86
2022/06/13 00:05:23;;;;;;;5.18;1.90;;;;;;;;;;514854;28;1410;-86
2022/06/13 00:05:39;;;;;;;5.20;1.80;;;;;;;;;;515777;28;1612;-87
2022/06/13 00:05:54;;;;;;;6.30;1.93;;;;;;;;;;513229;28;1305;-87
2022/06/13 00:06:10;;;;;;;5.37;1.90;;;;;;;;;;512425;28;1175;-87
2022/06/13 00:06:25;;;;;;;4.63;1.80;;;;;;;;;;513882;28;1410;-87
2022/06/13 00:06:41;;;;;;;5.28;1.80;;;;;;;;;;512083;28;1744;-86
2022/06/13 00:06:56;;;;;;;5.27;1.90;;;;;;;;;;514554;28;894;-86
2022/06/13 00:07:11;;;;;;;5.57;1.80;;;;;;;;;;513566;28;1562;-87
2022/06/13 00:07:27;;;;;;;6.28;1.88;;;;;;;;;;511944;29;1241;-86
2022/06/13 00:07:43;;;;;;;6.87;1.90;;;;;;;;;;512409;28;1178;-86
2022/06/13 00:07:58;;;;;;;6.22;1.80;;;;;;;;;;514676;28;1000;-86
2022/06/13 00:08:14;;;;;;;7.00;2.00;;;;;;;;;;513665;28;1508;-86
2022/06/13 00:08:29;;;;;;;6.10;1.90;;;;;;;;;;514137;28;1668;-86
2022/06/13 00:08:46;;;;;;;4.45;1.73;;;;;;;;;;515563;28;973;-86
2022/06/13 00:09:03;;;;;;;6.05;1.90;;;;;;;;;;516018;28;1228;-87
2022/06/13 00:09:18;;;;;;;6.40;2.03;;;;;;;;;;514699;28;1201;-86
2022/06/13 00:09:34;;;;;;;6.37;1.97;;;;;;;;;;513570;28;1433;-87
2022/06/13 00:09:49;;;;;;;6.28;1.90;;;;;;;;;;513862;28;1247;-86
2022/06/13 00:10:06;;;;;;;5.70;2.00;;;;;;;;;;513905;28;1164;-86
2022/06/13 00:10:21;;;;;;;4.93;1.83;;;;;;;;;;513937;28;1252;-86
2022/06/13 00:10:37;;;;;;;5.50;1.73;;;;;;;;;;514566;28;1388;-87
2022/06/13 00:10:53;;;;;;;5.65;2.00;;;;;;;;;;514340;28;1491;-86
2022/06/13 00:11:11;;;;;;;5.07;1.92;;;;;;;;;;511918;29;1203;-86
2022/06/13 00:11:27;;;;;;;4.97;1.80;;;;;;;;;;511922;28;1241;-86
2022/06/13 00:11:42;;;;;;;5.95;1.85;;;;;;;;;;511944;29;1334;-86
2022/06/13 00:11:57;;;;;;;5.80;1.97;;;;;;;;;;513425;28;1468;-87
2022/06/13 00:12:13;;;;;;;5.40;1.92;;;;;;;;;;514236;28;922;-86
2022/06/13 00:12:28;;;;;;;5.23;1.80;;;;;;;;;;513045;28;1447;-86
2022/06/13 00:12:44;;;;;;;4.57;1.80;;;;;;;;;;512244;29;1332;-86
2022/06/13 00:12:59;;;;;;;5.20;2.00;;;;;;;;;;514011;28;1254;-87
2022/06/13 00:13:15;;;;;;;6.43;2.05;;;;;;;;;;514643;28;811;-86
2022/06/13 00:13:30;;;;;;;5.43;1.97;;;;;;;;;;516183;28;1164;-86
2022/06/13 00:13:49;;;;;;;4.20;1.77;;;;;;;;;;516159;28;1536;-87
2022/06/13 00:14:05;;;;;;;4.65;1.85;;;;;;;;;;518168;28;1150;-87
2022/06/13 00:14:21;;;;;;;4.80;2.00;;;;;;;;;;517028;28;1126;-87
2022/06/13 00:14:36;;;;;;;5.57;1.80;;;;;;;;;;515084;28;1558;-86
2022/06/13 00:14:52;;;;;;;7.03;1.83;;;;;;;;;;512481;28;1351;-86
2022/06/13 00:15:10;;;;;;;7.75;1.83;;;;;;;;;;511791;29;1234;-87
2022/06/13 00:15:25;;;;;;;5.13;1.70;;;;;;;;;;514404;28;1560;-86
2022/06/13 00:15:41;;;;;;;4.57;1.70;;;;;;;;;;513652;28;1376;-86
2022/06/13 00:15:56;;;;;;;4.95;1.70;;;;;;;;;;513445;28;1502;-87
2022/06/13 00:16:13;;;;;;;6.73;2.07;;;;;;;;;;512531;28;1487;-87
2022/06/13 00:16:28;;;;;;;6.72;2.10;;;;;;;;;;513876;28;1567;-86
2022/06/13 00:16:43;;;;;;;6.47;2.03;;;;;;;;;;513812;28;1131;-87
2022/06/13 00:17:00;;;;;;;6.28;2.03;;;;;;;;;;514993;28;918;-86
2022/06/13 00:17:16;;;;;;;5.32;1.98;;;;;;;;;;514131;28;1383;-87
2022/06/13 00:17:31;;;;;;;5.30;1.90;;;;;;;;;;514790;28;1981;-87
2022/06/13 00:17:47;;;;;;;5.43;1.80;;;;;;;;;;515577;28;1516;-86
2022/06/13 00:18:02;;;;;;;5.13;1.80;;;;;;;;;;516608;28;1340;-87
2022/06/13 00:18:18;;;;;;;5.85;1.95;;;;;;;;;;516024;28;1407;-86
2022/06/13 00:18:33;;;;;;;6.30;1.97;;;;;;;;;;515925;28;1574;-86
2022/06/13 00:18:49;;;;;;;4.90;1.80;;;;;;;;;;518164;28;917;-87
2022/06/13 00:19:05;;;;;;;5.35;1.90;;;;;;;;;;518184;28;1383;-86
2022/06/13 00:19:20;;;;;;;5.95;2.00;;;;;;;;;;517662;28;1631;-87
2022/06/13 00:19:36;;;;;;;6.68;2.00;;;;;;;;;;518245;28;838;-87
2022/06/13 00:19:52;;;;;;;6.32;1.92;;;;;;;;;;515955;28;1372;-86
2022/06/13 00:20:08;;;;;;;6.13;2.00;;;;;;;;;;516103;28;973;-87
2022/06/13 00:20:23;;;;;;;6.75;2.08;;;;;;;;;;517054;28;1079;-86
2022/06/13 00:20:38;;;;;;;5.77;1.80;;;;;;;;;;516131;28;1284;-86
2022/06/13 00:20:54;;;;;;;4.97;1.80;;;;;;;;;;513795;28;1074;-88
2022/06/13 00:21:10;;;;;;;4.60;1.80;;;;;;;;;;514047;28;811;-87
2022/06/13 00:21:29;;;;;;;5.15;1.88;;;;;;;;;;515203;28;1297;-86
2022/06/13 00:21:44;;;;;;;5.35;1.90;;;;;;;;;;514540;28;1492;-87
2022/06/13 00:21:59;;;;;;;4.13;1.70;;;;;;;;;;513987;28;1282;-86
2022/06/13 00:22:15;;;;;;;4.57;1.90;;;;;;;;;;513927;28;1263;-89
2022/06/13 00:22:30;;;;;;;5.55;2.10;;;;;;;;;;512438;28;1516;-86
2022/06/13 00:22:46;;;;;;;5.85;2.00;;;;;;;;;;514003;28;1025;-86
2022/06/13 00:23:01;;;;;;;5.03;1.80;;;;;;;;;;512018;29;1232;-86
2022/06/13 00:23:17;;;;;;;4.83;1.80;;;;;;;;;;510838;29;1157;-86
2022/06/13 00:23:35;;;;;;;6.85;1.90;;;;;;;;;;510189;29;1192;-86
2022/06/13 00:23:51;;;;;;;8.07;2.05;;;;;;;;;;512252;28;1583;-86
2022/06/13 00:24:07;;;;;;;6.47;1.85;;;;;;;;;;511874;29;1161;-87
2022/06/13 00:24:23;;;;;;;4.72;1.67;;;;;;;;;;509983;29;1257;-87
2022/06/13 00:24:38;;;;;;;4.45;1.80;;;;;;;;;;510015;29;911;-86
2022/06/13 00:24:54;;;;;;;5.57;1.77;;;;;;;;;;511010;29;1100;-86
2022/06/13 00:25:09;;;;;;;6.72;1.98;;;;;;;;;;510783;29;1491;-86
2022/06/13 00:25:25;;;;;;;5.33;2.20;;;;;;;;;;512820;28;930;-86
2022/06/13 00:25:40;;;;;;;4.80;2.00;;;;;;;;;;514527;28;1464;-86
2022/06/13 00:25:56;;;;;;;4.87;1.73;;;;;;;;;;515012;28;917;-86
2022/06/13 00:26:11;;;;;;;4.00;1.58;;;;;;;;;;514427;28;1225;-87
2022/06/13 00:26:30;;;;;;;4.50;1.53;;;;;;;;;;516072;28;1334;-87
2022/06/13 00:26:45;;;;;;;5.40;1.80;;;;;;;;;;516177;28;1292;-87
2022/06/13 00:27:00;;;;;;;4.17;1.73;;;;;;;;;;516220;28;1662;-87
2022/06/13 00:27:16;;;;;;;3.88;1.63;;;;;;;;;;517345;28;1432;-86
2022/06/13 00:27:31;;;;;;;5.47;1.80;;;;;;;;;;518026;28;912;-86
2022/06/13 00:27:47;;;;;;;6.23;2.00;;;;;;;;;;517876;28;1541;-87
2022/06/13 00:28:02;;;;;;;5.20;1.90;;;;;;;;;;516031;28;1262;-86
2022/06/13 00:28:18;;;;;;;5.30;1.67;;;;;;;;;;515144;28;1194;-87
2022/06/13 00:28:33;;;;;;;6.10;1.90;;;;;;;;;;513851;28;1343;-86
2022/06/13 00:28:51;;;;;;;5.10;1.73;;;;;;;;;;511870;29;1196;-86
2022/06/13 00:29:06;;;;;;;5.25;1.60;;;;;;;;;;510985;28;1407;-87
2022/06/13 00:29:22;;;;;;;5.07;1.67;;;;;;;;;;511274;29;1712;-88
2022/06/13 00:29:38;;;;;;;4.60;1.70;;;;;;;;;;513081;28;1546;-87
2022/06/13 00:29:54;;;;;;;4.78;1.88;;;;;;;;;;513177;28;1637;-87
2022/06/13 00:30:10;;;;;;;4.53;1.80;;;;;;;;;;513562;28;1450;-86
2022/06/13 00:30:26;;;;;;;5.18;1.73;;;;;;;;;;513214;28;1612;-86
2022/06/13 00:30:41;;;;;;;5.28;1.92;;;;;;;;;;513430;28;1552;-87
2022/06/13 00:30:57;;;;;;;5.80;1.83;;;;;;;;;;514168;28;913;-86
2022/06/13 00:31:12;;;;;;;6.13;1.80;;;;;;;;;;512586;28;1253;-86
2022/06/13 00:31:27;;;;;;;5.20;1.80;;;;;;;;;;511910;29;1270;-87
2022/06/13 00:31:43;;;;;;;4.57;1.67;;;;;;;;;;509899;29;1281;-87
2022/06/13 00:31:58;;;;;;;4.40;1.50;;;;;;;;;;510451;29;989;-87
2022/06/13 00:32:14;;;;;;;5.70;1.67;;;;;;;;;;512130;28;1828;-87
2022/06/13 00:32:29;;;;;;;6.57;1.90;;;;;;;;;;513853;28;1269;-86
2022/06/13 00:32:45;;;;;;;5.53;1.87;;;;;;;;;;511971;28;1498;-87
2022/06/13 00:33:00;;;;;;;5.70;1.77;;;;;;;;;;511820;28;1231;-87
2022/06/13 00:33:15;;;;;;;5.70;1.90;;;;;;;;;;512051;28;1138;-86
2022/06/13 00:33:31;;;;;;;5.80;1.90;;;;;;;;;;513150;28;1567;-87
2022/06/13 00:33:46;;;;;;;6.33;1.80;;;;;;;;;;514146;28;1595;-86
2022/06/13 00:34:02;;;;;;;5.63;1.80;;;;;;;;;;511891;29;1245;-87
2022/06/13 00:34:17;;;;;;;4.90;1.80;;;;;;;;;;510162;29;1723;-86
2022/06/13 00:34:33;;;;;;;6.03;1.73;;;;;;;;;;512182;28;1336;-87
2022/06/13 00:34:48;;;;;;;6.47;1.80;;;;;;;;;;513991;28;1158;-87
2022/06/13 00:35:04;;;;;;;5.30;1.80;;;;;;;;;;514148;28;858;-86
2022/06/13 00:35:20;;;;;;;4.53;1.70;;;;;;;;;;514468;28;1181;-86
2022/06/13 00:35:35;;;;;;;4.95;1.73;;;;;;;;;;514063;28;1144;-86
2022/06/13 00:35:52;;;;;;;4.77;1.70;;;;;;;;;;512268;28;1374;-86
2022/06/13 00:36:08;;;;;;;4.07;1.63;;;;;;;;;;513767;28;1620;-87
2022/06/13 00:36:24;;;;;;;4.00;1.60;;;;;;;;;;514030;28;1563;-86
2022/06/13 00:36:39;;;;;;;6.18;1.77;;;;;;;;;;513488;28;1577;-87
2022/06/13 00:36:55;;;;;;;7.57;1.87;;;;;;;;;;513747;28;1326;-87
2022/06/13 00:37:10;;;;;;;6.82;1.83;;;;;;;;;;513015;28;1532;-86
2022/06/13 00:37:25;;;;;;;6.43;1.77;;;;;;;;;;514046;28;1331;-87
2022/06/13 00:37:41;;;;;;;5.17;1.80;;;;;;;;;;514255;28;1938;-87
2022/06/13 00:37:57;;;;;;;4.03;1.80;;;;;;;;;;515967;28;1106;-86
2022/06/13 00:38:12;;;;;;;4.53;1.70;;;;;;;;;;516022;28;874;-86
2022/06/13 00:38:28;;;;;;;6.47;1.90;;;;;;;;;;515957;28;1700;-87
2022/06/13 00:38:43;;;;;;;7.65;1.92;;;;;;;;;;516166;28;1177;-87
2022/06/13 00:38:59;;;;;;;6.47;1.67;;;;;;;;;;518052;28;810;-86
2022/06/13 00:39:14;;;;;;;5.25;1.60;;;;;;;;;;515501;28;1387;-87
2022/06/13 00:39:29;;;;;;;4.93;1.50;;;;;;;;;;515422;28;1372;-86
2022/06/13 00:39:45;;;;;;;5.47;1.67;;;;;;;;;;515849;28;1199;-86
2022/06/13 00:40:00;;;;;;;4.85;1.70;;;;;;;;;;513800;28;1671;-86
2022/06/13 00:40:16;;;;;;;4.65;1.50;;;;;;;;;;514064;28;1205;-86
2022/06/13 00:40:33;;;;;;;5.33;1.60;;;;;;;;;;514322;28;1290;-86
2022/06/13 00:40:49;;;;;;;6.88;1.80;;;;;;;;;;511939;28;1367;-87
2022/06/13 00:41:13;;;;;;;6.32;1.88;;;;;;;;;;513139;28;863;-87
2022/06/13 00:41:31;;;;;;;5.63;1.75;;;;;;;;;;514525;28;914;-87
2022/06/13 00:41:47;;;;;;;5.57;1.83;;;;;;;;;;516764;28;1451;-87
2022/06/13 00:42:03;;;;;;;4.07;1.75;;;;;;;;;;516026;28;1635;-86
2022/06/13 00:42:21;;;;;;;5.03;1.60;;;;;;;;;;515853;28;1220;-87
2022/06/13 00:42:38;;;;;;;5.18;1.52;;;;;;;;;;516158;28;1254;-86
2022/06/13 00:42:53;;;;;;;4.95;1.58;;;;;;;;;;515893;28;1839;-86
2022/06/13 00:43:12;;;;;;;5.90;1.60;;;;;;;;;;515893;28;1608;-87
2022/06/13 00:43:28;;;;;;;4.53;1.50;;;;;;;;;;516126;28;976;-86
2022/06/13 00:43:45;;;;;;;5.45;1.80;;;;;;;;;;516260;28;850;-87
2022/06/13 00:44:01;;;;;;;6.20;2.00;;;;;;;;;;514049;28;1292;-86
2022/06/13 00:44:27;;;;;;;5.20;1.90;;;;;;;;;;513459;28;1587;-86
2022/06/13 00:45:13;;;;;;;5.35;1.77;;;;;;;;;;515487;28;996;-86
2022/06/13 00:45:34;;;;;;;3.08;1.40;;;;;;;;;;517905;28;1601;-87
2022/06/13 00:45:49;;;;;;;3.70;1.55;;;;;;;;;;519215;28;1561;-86
2022/06/13 00:46:19;;;;;;;4.33;1.70;;;;;;;;;;521966;28;957;-87
2022/06/13 00:46:36;;;;;;;6.00;1.55;;;;;;;;;;520134;28;1428;-86
2022/06/13 00:46:52;;;;;;;4.60;1.65;;;;;;;;;;519823;28;1521;-87
2022/06/13 00:47:10;;;;;;;5.90;1.95;;;;;;;;;;520146;28;980;-87
2022/06/13 00:47:26;;;;;;;7.35;1.95;;;;;;;;;;519537;28;1507;-87
2022/06/13 00:47:44;;;;;;;6.22;1.90;;;;;;;;;;517659;28;1400;-86
2022/06/13 00:48:00;;;;;;;5.53;1.73;;;;;;;;;;516688;28;1357;-86
2022/06/13 00:48:19;;;;;;;6.18;1.70;;;;;;;;;;515941;28;1266;-87
2022/06/13 00:48:35;;;;;;;6.60;1.80;;;;;;;;;;515833;28;1032;-87
2022/06/13 00:49:00;;;;;;;7.05;2.00;;;;;;;;;;515839;28;1276;-87
2022/06/13 00:49:21;;;;;;;5.97;1.63;;;;;;;;;;514210;28;1315;-86
2022/06/13 00:49:44;;;;;;;5.35;1.70;;;;;;;;;;514892;28;1517;-87
2022/06/13 00:50:03;;;;;;;4.65;1.65;;;;;;;;;;512094;28;1679;-87
2022/06/13 00:50:31;;;;;;;4.10;1.60;;;;;;;;;;511419;29;1528;-87
2022/06/13 00:50:52;;;;;;;7.00;1.70;;;;;;;;;;513047;28;1260;-86
2022/06/13 00:51:08;;;;;;;5.78;1.60;;;;;;;;;;512530;28;1348;-86
2022/06/13 00:51:24;;;;;;;5.20;1.88;;;;;;;;;;511496;28;1530;-86
2022/06/13 00:52:06;;;;;;;5.80;1.88;;;;;;;;;;513182;28;1552;-87
2022/06/13 00:52:31;;;;;;;4.43;1.88;;;;;;;;;;511823;28;1045;-86
2022/06/13 00:52:54;;;;;;;5.22;1.70;;;;;;;;;;513949;28;1747;-87
2022/06/13 00:53:19;;;;;;;4.55;1.70;;;;;;;;;;514543;28;2459;-87
2022/06/13 00:53:36;;;;;;;6.28;1.60;;;;;;;;;;514935;28;1376;-87
2022/06/13 00:53:53;;;;;;;4.68;1.52;;;;;;;;;;513230;28;1592;-86
2022/06/13 00:54:12;;;;;;;5.65;1.65;;;;;;;;;;513458;28;1436;-87
2022/06/13 00:54:28;;;;;;;7.00;1.90;;;;;;;;;;514668;28;1331;-87
2022/06/13 00:54:45;;;;;;;4.68;1.63;;;;;;;;;;514374;28;1502;-87
2022/06/13 00:55:01;;;;;;;3.65;1.42;;;;;;;;;;515140;28;1473;-86
2022/06/13 00:55:25;;;;;;;4.30;1.67;;;;;;;;;;515611;28;1488;-87
2022/06/13 00:55:46;;;;;;;5.00;1.77;;;;;;;;;;516099;28;1457;-87
2022/06/13 00:56:15;;;;;;;5.78;1.80;;;;;;;;;;515415;28;1515;-87
2022/06/13 00:56:35;;;;;;;3.88;1.50;;;;;;;;;;513223;28;1451;-87
2022/06/13 00:56:51;;;;;;;4.28;1.45;;;;;;;;;;512066;28;1431;-88
2022/06/13 00:57:12;;;;;;;4.10;1.50;;;;;;;;;;511453;29;1867;-88
2022/06/13 00:57:29;;;;;;;5.65;1.70;;;;;;;;;;511808;28;1914;-87
2022/06/13 00:57:44;;;;;;;4.97;1.70;;;;;;;;;;513252;28;1457;-86
2022/06/13 00:58:01;;;;;;;4.00;1.60;;;;;;;;;;513818;28;1144;-86
2022/06/13 00:58:17;;;;;;;3.67;1.60;;;;;;;;;;513419;28;1795;-86
2022/06/13 00:58:40;;;;;;;3.70;1.60;;;;;;;;;;515692;28;1436;-87
2022/06/13 00:59:04;;;;;;;4.05;1.80;;;;;;;;;;515653;28;1285;-86
2022/06/13 00:59:25;;;;;;;5.15;1.77;;;;;;;;;;514819;28;1669;-86
2022/06/13 00:59:42;;;;;;;4.82;1.60;;;;;;;;;;516026;28;921;-87
2022/06/13 01:00:05;;;;;;;3.92;1.50;;;;;;;;;;515539;28;1096;-86
2022/06/13 01:00:20;;;;;;;4.35;1.42;;;;;;;;;;516569;28;1372;-87
2022/06/13 01:00:36;;;;;;;5.30;1.40;;;;;;;;;;517767;28;1887;-87
2022/06/13 01:00:54;;;;;;;4.40;1.50;;;;;;;;;;519083;28;1533;-87
2022/06/13 01:01:10;;;;;;;4.05;1.58;;;;;;;;;;518267;28;1248;-87
2022/06/13 01:01:27;;;;;;;4.40;1.50;;;;;;;;;;518076;28;1260;-86
2022/06/13 01:01:42;;;;;;;4.68;1.45;;;;;;;;;;518243;28;1056;-86
2022/06/13 01:01:58;;;;;;;4.63;1.63;;;;;;;;;;515934;28;1507;-87
2022/06/13 01:02:13;;;;;;;4.68;1.67;;;;;;;;;;516074;28;970;-86
2022/06/13 01:02:29;;;;;;;4.53;1.63;;;;;;;;;;514250;28;1767;-87
2022/06/13 01:02:47;;;;;;;4.70;1.63;;;;;;;;;;513892;28;1456;-87
2022/06/13 01:03:04;;;;;;;4.93;1.60;;;;;;;;;;516786;28;862;-86
2022/06/13 01:03:19;;;;;;;4.22;1.50;;;;;;;;;;515270;28;1285;-86
2022/06/13 01:03:35;;;;;;;3.77;1.40;;;;;;;;;;511814;29;1148;-87
2022/06/13 01:03:51;;;;;;;3.45;1.40;;;;;;;;;;509691;28;1500;-86
2022/06/13 01:04:08;;;;;;;3.42;1.40;;;;;;;;;;510162;28;1312;-86
2022/06/13 01:04:24;;;;;;;3.72;1.40;;;;;;;;;;511850;28;1332;-86
2022/06/13 01:04:40;;;;;;;5.70;1.60;;;;;;;;;;513917;28;1242;-86
2022/06/13 01:04:57;;;;;;;5.75;1.65;;;;;;;;;;514190;28;823;-86
2022/06/13 01:05:16;;;;;;;4.32;1.48;;;;;;;;;;513959;28;1334;-87
2022/06/13 01:05:35;;;;;;;4.43;1.40;;;;;;;;;;513909;28;1559;-87
2022/06/13 01:05:53;;;;;;;4.57;1.40;;;;;;;;;;515782;28;1232;-86
2022/06/13 01:06:10;;;;;;;4.03;1.40;;;;;;;;;;516000;28;1353;-86
2022/06/13 01:06:27;;;;;;;4.05;1.40;;;;;;;;;;513921;28;1480;-87
2022/06/13 01:06:48;;;;;;;3.85;1.50;;;;;;;;;;512322;28;1232;-86
2022/06/13 01:07:04;;;;;;;3.90;1.52;;;;;;;;;;513873;28;1264;-86
2022/06/13 01:07:21;;;;;;;4.07;1.60;;;;;;;;;;514275;28;1206;-87
2022/06/13 01:07:37;;;;;;;4.35;1.60;;;;;;;;;;513777;28;1661;-86
2022/06/13 01:07:54;;;;;;;4.82;1.70;;;;;;;;;;515486;28;1626;-86
2022/06/13 01:08:11;;;;;;;5.03;1.67;;;;;;;;;;513789;28;1441;-86
2022/06/13 01:08:28;;;;;;;4.68;1.55;;;;;;;;;;513896;28;1287;-86
2022/06/13 01:08:44;;;;;;;4.43;1.73;;;;;;;;;;513861;28;1312;-86
2022/06/13 01:09:03;;;;;;;5.80;1.80;;;;;;;;;;511883;29;1164;-86
2022/06/13 01:11:16;;;;;;;5.57;1.65;;;;;;;;;;511906;28;1396;-86
2022/06/13 01:11:16;;;;;;;3.88;1.50;;;;;;;;;;519657;28;1524;-86
2022/06/13 01:11:32;;;;;;;4.65;1.70;;;;;;;;;;521708;28;1500;-86
2022/06/13 01:11:53;;;;;;;3.58;1.40;;;;;;;;;;519956;28;1235;-86
2022/06/13 01:12:10;;;;;;;3.25;1.42;;;;;;;;;;519822;28;1219;-87
2022/06/13 01:12:28;;;;;;;3.65;1.50;;;;;;;;;;519830;28;1352;-87
2022/06/13 01:12:44;;;;;;;3.92;1.50;;;;;;;;;;519437;28;1624;-87
2022/06/13 01:13:03;;;;;;;3.83;1.40;;;;;;;;;;518032;28;1511;-87
2022/06/13 01:13:19;;;;;;;3.45;1.40;;;;;;;;;;517243;28;1574;-86
2022/06/13 01:13:55;;;;;;;3.78;1.60;;;;;;;;;;518237;28;1540;-86
2022/06/13 01:14:23;;;;;;;4.63;1.60;;;;;;;;;;515938;28;1141;-86
2022/06/13 01:14:50;;;;;;;4.00;1.40;;;;;;;;;;515971;28;1321;-86
2022/06/13 01:15:33;;;;;;;4.25;1.60;;;;;;;;;;511743;29;1170;-86
2022/06/13 01:16:22;;;;;;;3.80;1.60;;;;;;;;;;513807;28;1361;-87
2022/06/13 01:17:04;;;;;;;4.20;1.60;;;;;;;;;;509552;29;1556;-87
2022/06/13 01:17:30;;;;;;;4.20;1.60;;;;;;;;;;519132;28;1526;-88
2022/06/13 01:17:57;;;;;;;4.10;1.50;;;;;;;;;;518921;28;1538;-86
2022/06/13 01:18:28;;;;;;;3.30;1.30;;;;;;;;;;517956;28;1478;-86
2022/06/13 01:19:02;;;;;;;3.90;1.20;;;;;;;;;;519841;28;1533;-87
2022/06/13 01:19:56;;;;;;;2.60;1.30;;;;;;;;;;517972;28;1568;-85
2022/06/13 01:20:21;;;;;;;4.90;1.60;;;;;;;;;;519013;28;1304;-86
2022/06/13 01:21:13;;;;;;;4.00;1.45;;;;;;;;;;519771;28;866;-85
2022/06/13 01:21:53;;;;;;;4.22;1.42;;;;;;;;;;514505;28;1372;-86
2022/06/13 01:22:27;;;;;;;5.03;1.60;;;;;;;;;;517644;28;1251;-86
2022/06/13 01:22:46;;;;;;;4.93;1.70;;;;;;;;;;516524;28;1506;-86
2022/06/13 01:23:26;;;;;;;5.63;1.80;;;;;;;;;;517438;28;1512;-86
2022/06/13 01:24:07;;;;;;;3.95;1.55;;;;;;;;;;515867;28;1564;-86
2022/06/13 01:24:56;;;;;;;4.03;1.50;;;;;;;;;;519110;28;1621;-86
2022/06/13 01:25:20;;;;;;;3.92;1.48;;;;;;;;;;517843;28;1416;-86
2022/06/13 01:26:07;;;;;;;4.45;1.50;;;;;;;;;;517872;28;1447;-86
2022/06/13 01:26:52;;;;;;;3.17;1.40;;;;;;;;;;517740;28;1354;-86
2022/06/13 01:27:26;;;;;;;3.40;1.50;;;;;;;;;;515721;28;1177;-86
2022/06/13 01:28:00;;;;;;;4.35;1.63;;;;;;;;;;513436;28;1524;-86
2022/06/13 01:28:36;;;;;;;5.38;1.70;;;;;;;;;;516772;28;1276;-87
2022/06/13 01:29:01;;;;;;;4.72;1.80;;;;;;;;;;519525;28;1557;-86
2022/06/13 01:29:44;;;;;;;5.30;1.70;;;;;;;;;;517391;28;1621;-86
2022/06/13 01:30:11;;;;;;;4.03;1.65;;;;;;;;;;519266;28;1626;-86
2022/06/13 01:30:55;;;;;;;4.03;1.58;;;;;;;;;;519196;28;910;-85
2022/06/13 01:31:36;;;;;;;4.68;1.60;;;;;;;;;;519082;28;873;-85
2022/06/13 01:32:16;;;;;;;4.38;1.40;;;;;;;;;;517620;28;1486;-85
2022/06/13 01:32:40;;;;;;;5.25;1.58;;;;;;;;;;516764;28;1510;-85
2022/06/13 01:33:08;;;;;;;7.97;1.75;;;;;;;;;;517721;28;1468;-85
2022/06/13 01:33:56;;;;;;;5.68;1.58;;;;;;;;;;517513;28;1467;-85
2022/06/13 01:34:40;;;;;;;4.28;1.50;;;;;;;;;;517434;28;1323;-86
2022/06/13 01:35:32;;;;;;;5.97;1.80;;;;;;;;;;513837;28;1296;-85
2022/06/13 01:35:53;;;;;;;3.42;1.50;;;;;;;;;;515668;28;1249;-86
2022/06/13 01:36:25;;;;;;;4.35;1.50;;;;;;;;;;517923;28;1028;-85
2022/06/13 01:36:56;;;;;;;3.95;1.55;;;;;;;;;;517888;28;1433;-85
2022/06/13 01:37:26;;;;;;;6.35;1.63;;;;;;;;;;519641;28;1646;-87
2022/06/13 01:38:00;;;;;;;4.35;1.55;;;;;;;;;;518841;28;1971;-85
2022/06/13 01:38:47;;;;;;;6.28;1.73;;;;;;;;;;521936;28;1095;-85
2022/06/13 01:39:29;;;;;;;3.50;1.70;;;;;;;;;;521763;28;965;-86
2022/06/13 01:39:52;;;;;;;4.18;1.60;;;;;;;;;;518157;28;1516;-86
2022/06/13 01:40:28;;;;;;;3.63;1.50;;;;;;;;;;519793;28;1274;-86
2022/06/13 01:41:03;;;;;;;3.88;1.60;;;;;;;;;;517213;28;1374;-86
2022/06/13 01:41:28;;;;;;;4.50;1.50;;;;;;;;;;513626;28;883;-86
2022/06/13 01:42:07;;;;;;;4.28;1.60;;;;;;;;;;515582;28;1306;-86
2022/06/13 01:42:44;;;;;;;6.35;1.90;;;;;;;;;;515807;28;1217;-86
2022/06/13 01:43:13;;;;;;;4.80;1.80;;;;;;;;;;519501;28;1452;-86
2022/06/13 01:44:04;;;;;;;4.40;1.60;;;;;;;;;;516413;28;1495;-86
2022/06/13 01:44:44;;;;;;;4.15;1.50;;;;;;;;;;511441;29;1492;-86
2022/06/13 01:45:11;;;;;;;5.32;1.60;;;;;;;;;;517770;28;1577;-86
2022/06/13 01:45:38;;;;;;;5.05;1.70;;;;;;;;;;517293;28;968;-85
2022/06/13 01:46:10;;;;;;;5.70;1.70;;;;;;;;;;517684;28;1592;-86
2022/06/13 01:47:00;;;;;;;5.93;1.80;;;;;;;;;;518004;28;1218;-87
2022/06/13 01:47:21;;;;;;;5.60;1.70;;;;;;;;;;518120;28;977;-86
2022/06/13 01:47:39;;;;;;;5.03;1.70;;;;;;;;;;517200;28;1501;-86
2022/06/13 01:48:21;;;;;;;5.53;1.98;;;;;;;;;;515166;28;1285;-85
2022/06/13 01:49:04;;;;;;;6.85;1.70;;;;;;;;;;507518;29;1696;-86
2022/06/13 01:49:28;;;;;;;4.15;1.65;;;;;;;;;;515181;28;1281;-86
2022/06/13 01:49:58;;;;;;;6.93;1.90;;;;;;;;;;517907;28;1885;-86
2022/06/13 01:50:38;;;;;;;5.60;1.90;;;;;;;;;;519719;28;870;-86
2022/06/13 01:50:53;;;;;;;6.25;1.70;;;;;;;;;;517926;28;1443;-86
2022/06/13 01:51:18;;;;;;;4.73;1.80;;;;;;;;;;516434;28;1762;-86
2022/06/13 01:51:34;;;;;;;6.03;1.73;;;;;;;;;;516678;28;1475;-86
2022/06/13 01:51:55;;;;;;;5.23;1.70;;;;;;;;;;515614;28;1355;-86
2022/06/13 01:52:27;;;;;;;3.90;1.80;;;;;;;;;;513589;28;1240;-86
2022/06/13 01:52:56;;;;;;;4.40;1.60;;;;;;;;;;514190;28;1143;-85
2022/06/13 01:53:20;;;;;;;3.88;1.63;;;;;;;;;;513882;28;1311;-85
2022/06/13 01:53:50;;;;;;;4.63;1.70;;;;;;;;;;511941;28;1551;-85
2022/06/13 01:54:22;;;;;;;4.78;1.70;;;;;;;;;;516139;28;1399;-86
2022/06/13 01:55:08;;;;;;;5.30;1.67;;;;;;;;;;515687;28;929;-86
2022/06/13 01:55:39;;;;;;;2.88;1.35;;;;;;;;;;515404;28;1676;-86
2022/06/13 01:56:01;;;;;;;4.63;1.70;;;;;;;;;;517732;28;1283;-87
2022/06/13 01:56:22;;;;;;;5.53;1.70;;;;;;;;;;518765;28;917;-86
2022/06/13 01:57:11;;;;;;;4.75;1.70;;;;;;;;;;517832;28;1227;-86
2022/06/13 01:57:38;;;;;;;6.22;2.08;;;;;;;;;;517597;28;1306;-86
2022/06/13 01:58:40;;;;;;;5.85;1.70;;;;;;;;;;515779;28;1255;-86
2022/06/13 01:58:58;;;;;;;4.55;1.60;;;;;;;;;;511904;28;1588;-86
2022/06/13 01:59:14;;;;;;;5.75;1.63;;;;;;;;;;515991;28;1263;-86
2022/06/13 02:00:09;;;;;;;4.90;1.50;;;;;;;;;;517838;28;1446;-86
2022/06/13 02:00:31;;;;;;;5.00;1.63;;;;;;;;;;517701;28;870;-86
2022/06/13 02:00:53;;;;;;;5.15;1.80;;;;;;;;;;518100;28;1446;-86
2022/06/13 02:01:34;;;;;;;4.18;1.67;;;;;;;;;;519347;28;1556;-86
2022/06/13 02:02:10;;;;;;;5.22;1.80;;;;;;;;;;514051;28;1504;-86
2022/06/13 02:02:48;;;;;;;4.90;1.70;;;;;;;;;;513328;28;1597;-86
2022/06/13 02:03:15;;;;;;;4.85;1.73;;;;;;;;;;514931;28;1597;-86
2022/06/13 02:03:44;;;;;;;6.15;1.85;;;;;;;;;;512696;28;1580;-86
2022/06/13 02:04:09;;;;;;;7.50;2.03;;;;;;;;;;516432;28;1053;-86
2022/06/13 02:04:47;;;;;;;6.28;2.17;;;;;;;;;;518158;28;1348;-86
2022/06/13 02:05:10;;;;;;;4.97;1.80;;;;;;;;;;518916;28;1734;-86
2022/06/13 02:05:58;;;;;;;6.40;1.95;;;;;;;;;;520997;28;1226;-86
2022/06/13 02:06:20;;;;;;;6.07;1.88;;;;;;;;;;511201;29;1459;-86
2022/06/13 02:06:41;;;;;;;4.38;1.60;;;;;;;;;;509759;29;1397;-86
2022/06/13 02:07:08;;;;;;;5.10;1.83;;;;;;;;;;509030;29;1416;-86
2022/06/13 02:07:29;;;;;;;4.95;1.70;;;;;;;;;;510844;28;1339;-86
2022/06/13 02:07:50;;;;;;;5.65;1.80;;;;;;;;;;515911;28;1551;-85
2022/06/13 02:08:13;;;;;;;5.32;1.88;;;;;;;;;;514573;28;993;-86
2022/06/13 02:08:34;;;;;;;4.97;1.90;;;;;;;;;;517064;28;1539;-86
2022/06/13 02:08:56;;;;;;;4.82;1.70;;;;;;;;;;518972;28;1529;-86
2022/06/13 02:09:17;;;;;;;4.97;1.70;;;;;;;;;;517380;28;1420;-86
2022/06/13 02:09:41;;;;;;;3.42;1.63;;;;;;;;;;516185;28;957;-86
2022/06/13 02:10:10;;;;;;;4.10;1.60;;;;;;;;;;512961;28;914;-86
2022/06/13 02:10:30;;;;;;;5.47;1.77;;;;;;;;;;511329;29;1567;-86
2022/06/13 02:10:58;;;;;;;5.22;1.70;;;;;;;;;;513006;28;1328;-86
2022/06/13 02:11:24;;;;;;;4.32;1.50;;;;;;;;;;514971;28;875;-86
2022/06/13 02:11:43;;;;;;;5.13;1.80;;;;;;;;;;515762;28;1235;-85
2022/06/13 02:11:58;;;;;;;5.38;2.00;;;;;;;;;;516091;28;890;-86
2022/06/13 02:12:17;;;;;;;4.00;1.73;;;;;;;;;;514606;28;1120;-85
2022/06/13 02:12:34;;;;;;;4.57;1.77;;;;;;;;;;513703;28;1672;-86
2022/06/13 02:12:54;;;;;;;4.78;1.77;;;;;;;;;;515942;28;1586;-86
2022/06/13 02:13:19;;;;;;;4.63;1.70;;;;;;;;;;518267;28;1320;-86
2022/06/13 02:13:39;;;;;;;4.32;1.67;;;;;;;;;;513820;28;1228;-85
2022/06/13 02:14:10;;;;;;;3.85;1.60;;;;;;;;;;515570;28;1547;-85
2022/06/13 02:14:57;;;;;;;3.72;1.50;;;;;;;;;;513060;28;1261;-85
2022/06/13 02:15:18;;;;;;;3.78;1.50;;;;;;;;;;514511;28;1444;-88
2022/06/13 02:15:41;;;;;;;4.47;1.67;;;;;;;;;;515591;28;1327;-88
2022/06/13 02:16:00;;;;;;;4.60;1.60;;;;;;;;;;513808;28;1440;-88
2022/06/13 02:16:22;;;;;;;4.50;1.50;;;;;;;;;;515993;28;897;-88